Time;durP1;ratioP1;P1;durP2;ratioP2;P2;SDS_P1;SDS_P2;PMS_P1;PMS_P2;Temp;Humidity;BMP_temperature;BMP_pressure;BME280_temperature;BME280_humidity;BME280_pressure;Samples;Min_cycle;Max_cycle;Signal;HPM_P1;HPM_P2
2022/05/18 00:01:07;;;;;;;3.80;2.20;;;;;;;;;;6218770;28;20516;-73
2022/05/18 00:04:28;;;;;;;3.15;2.15;;;;;;;;;;6221042;28;20236;-73
2022/05/18 00:07:49;;;;;;;3.73;1.70;;;;;;;;;;6222731;28;20236;-73
2022/05/18 00:11:12;;;;;;;1.45;1.35;;;;;;;;;;6225264;28;20240;-73
2022/05/18 00:14:33;;;;;;;3.53;2.38;;;;;;;;;;6207616;28;20561;-74
2022/05/18 00:17:53;;;;;;;4.53;2.80;;;;;;;;;;6218391;28;20225;-74
2022/05/18 00:21:14;;;;;;;2.95;1.80;;;;;;;;;;6226087;28;21050;-74
2022/05/18 00:24:35;;;;;;;1.38;1.25;;;;;;;;;;6218074;28;20232;-73
2022/05/18 00:27:57;;;;;;;3.58;1.33;;;;;;;;;;6210961;28;20233;-72
2022/05/18 00:31:18;;;;;;;2.83;1.30;;;;;;;;;;6224971;28;20248;-73
2022/05/18 00:34:39;;;;;;;2.38;1.42;;;;;;;;;;6223549;28;20220;-72
2022/05/18 00:38:00;;;;;;;3.78;2.22;;;;;;;;;;6218749;28;20232;-73
2022/05/18 00:41:23;;;;;;;1.83;1.73;;;;;;;;;;6222530;28;20554;-73
2022/05/18 00:44:45;;;;;;;10.37;2.63;;;;;;;;;;6222632;28;20260;-72
2022/05/18 00:48:06;;;;;;;2.00;1.33;;;;;;;;;;6220070;28;21254;-73
2022/05/18 00:51:28;;;;;;;1.58;1.48;;;;;;;;;;6219250;28;20384;-74
2022/05/18 00:54:49;;;;;;;2.77;1.87;;;;;;;;;;6225627;28;20911;-73
2022/05/18 00:58:12;;;;;;;2.35;1.60;;;;;;;;;;6221533;28;20232;-73
2022/05/18 01:01:34;;;;;;;3.57;2.03;;;;;;;;;;6218026;28;20530;-74
2022/05/18 01:04:56;;;;;;;2.15;1.55;;;;;;;;;;6220646;28;20252;-73
2022/05/18 01:08:20;;;;;;;1.40;1.20;;;;;;;;;;6221247;28;20229;-73
2022/05/18 01:11:40;;;;;;;2.30;1.20;;;;;;;;;;6218331;28;20229;-75
2022/05/18 01:15:02;;;;;;;5.82;1.92;;;;;;;;;;6215701;28;20681;-75
2022/05/18 01:18:24;;;;;;;1.73;1.42;;;;;;;;;;6221125;28;20353;-74
2022/05/18 01:21:49;;;;;;;1.67;1.02;;;;;;;;;;6221229;28;20232;-72
2022/05/18 01:25:17;;;;;;;2.25;2.03;;;;;;;;;;6223484;28;20256;-73
2022/05/18 01:28:41;;;;;;;2.08;1.75;;;;;;;;;;6219526;28;20232;-72
2022/05/18 01:32:02;;;;;;;2.08;1.13;;;;;;;;;;6223651;28;20232;-73
2022/05/18 01:35:24;;;;;;;2.35;1.35;;;;;;;;;;6218370;28;21796;-73
2022/05/18 01:38:44;;;;;;;2.08;1.15;;;;;;;;;;6217313;28;20236;-73
2022/05/18 01:42:10;;;;;;;3.13;1.67;;;;;;;;;;6225117;28;20236;-73
2022/05/18 01:45:32;;;;;;;3.13;1.27;;;;;;;;;;6210278;28;20240;-73
2022/05/18 01:48:53;;;;;;;2.50;1.40;;;;;;;;;;6217980;28;20612;-69
2022/05/18 01:52:14;;;;;;;1.93;1.40;;;;;;;;;;6218751;28;20607;-73
2022/05/18 01:55:35;;;;;;;2.53;1.77;;;;;;;;;;6217528;28;20691;-73
2022/05/18 01:58:56;;;;;;;2.53;1.43;;;;;;;;;;6214778;28;20225;-73
2022/05/18 02:02:18;;;;;;;0.90;0.87;;;;;;;;;;6218980;28;20232;-73
2022/05/18 02:05:39;;;;;;;2.20;1.37;;;;;;;;;;6215990;28;20320;-73
2022/05/18 02:08:59;;;;;;;3.50;1.57;;;;;;;;;;6218349;28;20224;-73
2022/05/18 02:12:20;;;;;;;1.13;1.03;;;;;;;;;;6221720;28;20225;-74
2022/05/18 02:15:41;;;;;;;3.33;1.10;;;;;;;;;;6213503;28;20228;-72
2022/05/18 02:19:03;;;;;;;2.00;1.00;;;;;;;;;;6208692;28;20225;-74
2022/05/18 02:22:24;;;;;;;2.30;1.37;;;;;;;;;;6221292;28;20224;-75
2022/05/18 02:25:45;;;;;;;3.53;1.37;;;;;;;;;;6224856;28;20251;-74
2022/05/18 02:29:06;;;;;;;2.53;1.43;;;;;;;;;;6218053;28;20581;-74
2022/05/18 02:32:27;;;;;;;1.40;1.20;;;;;;;;;;6219958;28;20225;-74
2022/05/18 02:35:49;;;;;;;1.03;0.97;;;;;;;;;;6222086;28;20258;-72
2022/05/18 02:39:09;;;;;;;4.97;1.10;;;;;;;;;;6220879;28;20229;-73
2022/05/18 02:42:30;;;;;;;2.00;0.97;;;;;;;;;;6221528;28;20224;-72
2022/05/18 02:45:50;;;;;;;2.17;1.30;;;;;;;;;;6217552;28;20237;-73
2022/05/18 02:49:11;;;;;;;2.17;1.33;;;;;;;;;;6217544;28;20232;-76
2022/05/18 02:52:34;;;;;;;1.33;1.20;;;;;;;;;;6219527;28;20834;-77
2022/05/18 02:56:07;;;;;;;1.30;1.20;;;;;;;;;;6224753;28;20232;-76
2022/05/18 02:59:28;;;;;;;4.03;3.63;;;;;;;;;;6222175;28;20224;-77
2022/05/18 03:02:48;;;;;;;3.37;1.67;;;;;;;;;;6228536;28;20232;-77
2022/05/18 03:06:10;;;;;;;3.37;1.57;;;;;;;;;;6228432;28;20235;-78
2022/05/18 03:09:33;;;;;;;2.60;1.47;;;;;;;;;;6230174;28;20224;-79
2022/05/18 03:12:53;;;;;;;3.23;1.27;;;;;;;;;;6230566;28;22344;-79
2022/05/18 03:16:15;;;;;;;5.53;1.20;;;;;;;;;;6227921;28;21333;-79
2022/05/18 03:19:36;;;;;;;3.53;1.50;;;;;;;;;;6222847;28;20252;-78
2022/05/18 03:26:36;;;;;;;2.97;1.70;;;;;;;;;;6229680;28;20232;-80
2022/05/18 03:29:56;;;;;;;3.17;1.47;;;;;;;;;;6225094;28;20331;-78
2022/05/18 03:33:17;;;;;;;5.63;1.97;;;;;;;;;;6223908;28;20233;-77
2022/05/18 03:36:38;;;;;;;1.70;1.20;;;;;;;;;;6228439;28;20807;-78
2022/05/18 03:39:59;;;;;;;3.83;1.43;;;;;;;;;;6226356;28;20449;-78
2022/05/18 03:43:22;;;;;;;5.10;1.37;;;;;;;;;;6222673;28;20240;-78
2022/05/18 03:46:42;;;;;;;2.60;1.30;;;;;;;;;;6222229;28;21009;-77
2022/05/18 03:50:03;;;;;;;6.30;1.67;;;;;;;;;;6223486;28;20232;-76
2022/05/18 03:53:24;;;;;;;3.57;1.50;;;;;;;;;;6222764;28;20499;-78
2022/05/18 03:56:45;;;;;;;1.53;1.37;;;;;;;;;;6230140;28;20260;-77
2022/05/18 04:00:08;;;;;;;4.97;1.30;;;;;;;;;;6225277;28;20225;-79
2022/05/18 04:03:29;;;;;;;4.83;1.70;;;;;;;;;;6221234;28;20229;-78
2022/05/18 04:06:49;;;;;;;1.43;1.30;;;;;;;;;;6227805;28;20500;-77
2022/05/18 04:10:10;;;;;;;3.00;1.57;;;;;;;;;;6223850;28;20349;-78
2022/05/18 04:13:32;;;;;;;3.27;1.33;;;;;;;;;;6223548;28;20224;-78
2022/05/18 04:16:54;;;;;;;2.13;1.20;;;;;;;;;;6222329;28;20498;-78
2022/05/18 04:20:16;;;;;;;1.77;1.67;;;;;;;;;;6220843;28;20224;-77
2022/05/18 04:23:38;;;;;;;4.07;2.10;;;;;;;;;;6220224;28;20240;-77
2022/05/18 04:26:58;;;;;;;2.33;2.13;;;;;;;;;;6224342;28;20610;-77
2022/05/18 04:30:20;;;;;;;5.10;1.87;;;;;;;;;;6223676;28;20216;-77
2022/05/18 04:33:42;;;;;;;4.33;1.43;;;;;;;;;;6221827;28;20232;-77
2022/05/18 04:37:03;;;;;;;2.47;1.40;;;;;;;;;;6223508;28;20236;-76
2022/05/18 04:40:24;;;;;;;2.33;1.83;;;;;;;;;;6225515;28;20228;-75
2022/05/18 04:43:44;;;;;;;2.13;1.73;;;;;;;;;;6227275;28;20362;-76
2022/05/18 04:47:05;;;;;;;3.57;2.20;;;;;;;;;;6213967;28;20221;-78
2022/05/18 04:50:27;;;;;;;2.43;1.77;;;;;;;;;;6223616;28;20231;-77
2022/05/18 04:53:48;;;;;;;2.33;1.53;;;;;;;;;;6225994;28;20236;-76
2022/05/18 04:57:09;;;;;;;4.85;1.98;;;;;;;;;;6222319;28;20236;-75
2022/05/18 05:00:29;;;;;;;2.93;1.10;;;;;;;;;;6211683;28;20237;-78
2022/05/18 05:03:50;;;;;;;3.57;1.50;;;;;;;;;;6220930;28;20216;-77
2022/05/18 05:07:12;;;;;;;4.47;1.60;;;;;;;;;;6237698;28;20598;-76
2022/05/18 05:10:32;;;;;;;2.43;2.10;;;;;;;;;;6219247;28;20232;-78
2022/05/18 05:13:53;;;;;;;4.40;1.47;;;;;;;;;;6217404;28;20224;-76
2022/05/18 05:17:14;;;;;;;2.03;1.43;;;;;;;;;;6222841;28;20308;-77
2022/05/18 05:20:34;;;;;;;4.87;2.33;;;;;;;;;;6221881;28;20225;-77
2022/05/18 05:23:56;;;;;;;2.77;1.63;;;;;;;;;;6217599;28;20225;-76
2022/05/18 05:27:17;;;;;;;4.77;1.60;;;;;;;;;;6215299;28;20244;-77
2022/05/18 05:30:37;;;;;;;2.87;1.70;;;;;;;;;;6221973;28;20232;-78
2022/05/18 05:33:58;;;;;;;4.15;2.00;;;;;;;;;;6223064;28;20894;-76
2022/05/18 05:37:19;;;;;;;1.97;1.80;;;;;;;;;;6221564;28;20236;-76
2022/05/18 05:40:41;;;;;;;5.10;1.90;;;;;;;;;;6223017;28;20229;-75
2022/05/18 05:44:03;;;;;;;5.22;2.22;;;;;;;;;;6210343;28;20619;-77
2022/05/18 05:47:23;;;;;;;2.92;1.90;;;;;;;;;;6220230;28;20328;-81
2022/05/18 05:50:44;;;;;;;3.38;2.08;;;;;;;;;;6222785;28;20327;-81
2022/05/18 05:54:05;;;;;;;6.50;2.23;;;;;;;;;;6220245;28;20312;-80
2022/05/18 05:57:27;;;;;;;5.40;2.20;;;;;;;;;;6220582;28;20236;-79
2022/05/18 06:00:48;;;;;;;4.13;2.33;;;;;;;;;;6218960;28;20237;-79
2022/05/18 06:04:10;;;;;;;2.92;1.98;;;;;;;;;;6224511;28;20236;-78
2022/05/18 06:07:31;;;;;;;5.03;2.50;;;;;;;;;;6221191;28;20232;-78
2022/05/18 06:10:52;;;;;;;3.65;2.92;;;;;;;;;;6222821;28;20232;-79
2022/05/18 06:14:13;;;;;;;4.88;2.80;;;;;;;;;;6228370;28;20682;-80
2022/05/18 06:17:34;;;;;;;2.92;2.40;;;;;;;;;;6220857;28;20342;-77
2022/05/18 06:20:54;;;;;;;4.18;2.55;;;;;;;;;;6212322;28;20237;-79
2022/05/18 06:24:15;;;;;;;7.45;2.90;;;;;;;;;;6227823;28;20834;-79
2022/05/18 06:27:36;;;;;;;2.92;2.67;;;;;;;;;;6227900;28;20323;-76
2022/05/18 06:30:58;;;;;;;5.03;2.92;;;;;;;;;;6231007;28;20233;-79
2022/05/18 06:34:21;;;;;;;5.30;2.67;;;;;;;;;;6227824;28;20232;-79
2022/05/18 06:37:41;;;;;;;3.40;2.67;;;;;;;;;;6222390;28;20240;-79
2022/05/18 06:44:39;;;;;;;3.83;3.00;;;;;;;;;;6232762;28;20253;-74
2022/05/18 06:48:01;;;;;;;4.50;2.88;;;;;;;;;;6226688;28;20673;-80
2022/05/18 06:51:23;;;;;;;3.85;2.83;;;;;;;;;;6228343;28;20224;-82
2022/05/18 06:54:44;;;;;;;2.72;2.53;;;;;;;;;;6228266;28;20228;-80
2022/05/18 06:58:05;;;;;;;4.90;3.00;;;;;;;;;;6230436;28;20304;-81
2022/05/18 07:01:26;;;;;;;4.15;2.78;;;;;;;;;;6230712;28;20594;-82
2022/05/18 07:04:49;;;;;;;5.13;2.00;;;;;;;;;;6232266;28;20240;-79
2022/05/18 07:08:10;;;;;;;4.13;3.10;;;;;;;;;;6229879;28;20616;-79
2022/05/18 07:11:30;;;;;;;3.40;3.10;;;;;;;;;;6232929;28;20228;-80
2022/05/18 07:14:50;;;;;;;4.15;2.60;;;;;;;;;;6228759;28;20278;-81
2022/05/18 07:18:11;;;;;;;3.50;2.95;;;;;;;;;;6232021;28;20233;-81
2022/05/18 07:21:33;;;;;;;4.38;3.15;;;;;;;;;;6230070;28;20232;-77
2022/05/18 07:24:54;;;;;;;5.28;3.15;;;;;;;;;;6224119;28;20236;-78
2022/05/18 07:28:14;;;;;;;6.15;3.22;;;;;;;;;;6228458;28;20517;-78
2022/05/18 07:32:08;;;;;;;4.95;3.05;;;;;;;;;;6233256;28;20228;-79
2022/05/18 07:35:16;;;;;;;6.18;4.18;;;;;;;;;;6221881;28;20254;-79
2022/05/18 07:38:39;;;;;;;5.65;4.18;;;;;;;;;;6225708;28;20500;-78
2022/05/18 07:42:00;;;;;;;4.65;3.40;;;;;;;;;;6225010;28;20233;-79
2022/05/18 07:45:21;;;;;;;5.38;3.63;;;;;;;;;;6223076;28;20319;-83
2022/05/18 07:48:42;;;;;;;6.55;3.72;;;;;;;;;;6226214;28;20229;-78
2022/05/18 07:52:03;;;;;;;3.72;3.42;;;;;;;;;;6215053;28;20292;-77
2022/05/18 07:55:25;;;;;;;4.45;4.05;;;;;;;;;;6224061;28;20233;-78
2022/05/18 07:58:45;;;;;;;4.13;3.80;;;;;;;;;;6221022;28;20232;-78
2022/05/18 08:02:06;;;;;;;4.07;3.60;;;;;;;;;;6220413;28;20557;-77
2022/05/18 08:05:29;;;;;;;5.88;4.18;;;;;;;;;;6220847;28;20236;-78
2022/05/18 08:08:49;;;;;;;3.88;3.50;;;;;;;;;;6226150;28;20241;-76
2022/05/18 08:15:49;;;;;;;6.95;4.40;;;;;;;;;;6226179;28;20252;-78
2022/05/18 08:19:12;;;;;;;4.63;4.22;;;;;;;;;;6219922;28;20839;-79
2022/05/18 08:22:32;;;;;;;7.30;3.95;;;;;;;;;;6221241;28;20229;-79
2022/05/18 08:25:54;;;;;;;4.90;4.00;;;;;;;;;;6226596;28;20225;-78
2022/05/18 08:29:16;;;;;;;6.72;3.80;;;;;;;;;;6224729;28;20937;-77
2022/05/18 08:32:37;;;;;;;4.28;3.92;;;;;;;;;;6227355;28;20232;-77
2022/05/18 08:35:57;;;;;;;5.95;4.78;;;;;;;;;;6232625;28;20307;-77
2022/05/18 08:39:17;;;;;;;6.65;5.28;;;;;;;;;;6230253;28;20315;-79
2022/05/18 08:42:38;;;;;;;5.88;5.28;;;;;;;;;;6230993;28;20248;-79
2022/05/18 08:46:06;;;;;;;6.85;5.45;;;;;;;;;;6228065;28;20228;-77
2022/05/18 08:49:32;;;;;;;6.03;5.20;;;;;;;;;;6222345;28;20232;-79
2022/05/18 08:52:59;;;;;;;7.95;5.68;;;;;;;;;;6217624;28;20233;-77
2022/05/18 08:56:22;;;;;;;6.88;5.80;;;;;;;;;;6223137;28;20225;-78
2022/05/18 08:59:44;;;;;;;6.43;5.72;;;;;;;;;;6220709;28;20563;-78
2022/05/18 09:03:10;;;;;;;7.00;6.35;;;;;;;;;;6222265;28;20618;-78
2022/05/18 09:06:32;;;;;;;6.07;5.57;;;;;;;;;;6227609;28;20494;-79
2022/05/18 09:13:31;;;;;;;8.50;5.65;;;;;;;;;;6230148;28;20225;-77
2022/05/18 09:16:57;;;;;;;7.47;5.38;;;;;;;;;;6223393;28;20233;-77
2022/05/18 09:20:22;;;;;;;7.15;6.15;;;;;;;;;;6232759;28;20887;-78
2022/05/18 09:23:55;;;;;;;7.20;6.70;;;;;;;;;;6231988;28;20638;-78
2022/05/18 09:27:22;;;;;;;9.05;7.40;;;;;;;;;;6221875;28;20232;-76
2022/05/18 09:30:49;;;;;;;6.78;6.13;;;;;;;;;;6226310;28;20232;-82
2022/05/18 09:34:25;;;;;;;8.82;8.13;;;;;;;;;;6226511;28;20411;-83
2022/05/18 09:37:50;;;;;;;8.85;7.93;;;;;;;;;;6212088;28;20260;-82
2022/05/18 09:41:13;;;;;;;6.90;6.30;;;;;;;;;;6226560;28;20233;-83
2022/05/18 09:44:37;;;;;;;5.85;5.32;;;;;;;;;;6227880;28;20232;-84
2022/05/18 09:47:58;;;;;;;7.45;6.60;;;;;;;;;;6228946;28;20239;-82
2022/05/18 09:51:19;;;;;;;8.38;7.45;;;;;;;;;;6225259;28;20229;-82
2022/05/18 09:54:41;;;;;;;6.25;5.75;;;;;;;;;;6225109;28;20224;-82
2022/05/18 09:58:03;;;;;;;11.00;8.00;;;;;;;;;;6223355;28;20229;-79
2022/05/18 10:08:57;;;;;;;8.25;7.55;;;;;;;;;;6173837;28;20288;-83
2022/05/18 10:12:22;;;;;;;8.30;7.60;;;;;;;;;;6173053;28;20228;-83
2022/05/18 10:15:45;;;;;;;13.50;7.82;;;;;;;;;;6232837;28;20614;-81
2022/05/18 10:19:07;;;;;;;8.20;7.55;;;;;;;;;;6226688;28;20220;-84
2022/05/18 10:22:30;;;;;;;7.72;7.03;;;;;;;;;;6229242;28;20224;-82
2022/05/18 10:25:51;;;;;;;8.10;7.38;;;;;;;;;;6229174;28;20228;-82
2022/05/18 10:29:23;;;;;;;8.48;7.68;;;;;;;;;;6227570;28;21706;-79
2022/05/18 10:32:53;;;;;;;9.07;8.27;;;;;;;;;;6234838;28;20224;-83
2022/05/18 10:36:15;;;;;;;8.63;7.93;;;;;;;;;;6231469;28;20485;-84
2022/05/18 10:39:38;;;;;;;9.13;8.32;;;;;;;;;;6223943;28;20232;-79
2022/05/18 10:43:12;;;;;;;8.32;7.53;;;;;;;;;;6231169;28;20331;-81
2022/05/18 10:46:36;;;;;;;10.52;7.38;;;;;;;;;;6235182;28;20766;-82
2022/05/18 10:50:24;;;;;;;7.80;7.07;;;;;;;;;;6231717;28;20225;-80
2022/05/18 10:53:45;;;;;;;8.27;7.68;;;;;;;;;;6227884;28;20224;-83
2022/05/18 10:57:11;;;;;;;8.57;7.78;;;;;;;;;;6234108;28;20224;-81
2022/05/18 11:00:40;;;;;;;8.93;8.20;;;;;;;;;;6219523;28;20232;-80
2022/05/18 11:04:14;;;;;;;7.97;7.28;;;;;;;;;;6227416;28;20228;-82
2022/05/18 11:07:35;;;;;;;8.18;7.30;;;;;;;;;;6226676;28;20647;-83
2022/05/18 11:11:00;;;;;;;9.02;8.20;;;;;;;;;;6223587;28;20232;-82
2022/05/18 11:14:24;;;;;;;8.93;8.10;;;;;;;;;;6228655;28;20236;-81
2022/05/18 11:17:50;;;;;;;10.90;9.02;;;;;;;;;;6230216;28;20473;-86
2022/05/18 11:21:16;;;;;;;8.35;7.60;;;;;;;;;;6227975;28;20233;-80
2022/05/18 11:24:41;;;;;;;9.65;8.40;;;;;;;;;;6226611;28;20232;-81
2022/05/18 11:28:08;;;;;;;8.73;7.93;;;;;;;;;;6228341;28;20331;-80
2022/05/18 11:31:41;;;;;;;7.93;7.22;;;;;;;;;;6237032;28;20240;-81
2022/05/18 11:35:11;;;;;;;10.13;9.20;;;;;;;;;;6226899;28;20603;-81
2022/05/18 11:38:50;;;;;;;9.02;8.30;;;;;;;;;;6227573;28;20233;-80
2022/05/18 11:42:18;;;;;;;8.75;7.53;;;;;;;;;;6213918;28;20280;-73
2022/05/18 11:45:43;;;;;;;9.20;8.27;;;;;;;;;;6225222;28;20658;-69
2022/05/18 11:49:09;;;;;;;9.27;8.55;;;;;;;;;;6222427;28;20229;-70
2022/05/18 11:52:42;;;;;;;7.57;6.80;;;;;;;;;;6226820;28;20232;-70
2022/05/18 11:56:18;;;;;;;8.68;6.30;;;;;;;;;;6219698;28;20312;-71
2022/05/18 11:59:57;;;;;;;7.55;6.15;;;;;;;;;;6223660;28;20338;-70
2022/05/18 12:03:38;;;;;;;8.55;7.75;;;;;;;;;;6225555;28;20228;-69
2022/05/18 12:07:24;;;;;;;9.68;7.38;;;;;;;;;;6229490;28;20221;-69
2022/05/18 12:10:50;;;;;;;7.00;6.40;;;;;;;;;;6226385;28;20237;-70
2022/05/18 12:14:16;;;;;;;6.85;6.18;;;;;;;;;;6221857;28;20327;-69
2022/05/18 12:17:41;;;;;;;6.25;5.70;;;;;;;;;;6228444;28;20669;-70
2022/05/18 12:21:03;;;;;;;8.48;6.45;;;;;;;;;;6222751;28;20551;-70
2022/05/18 12:24:25;;;;;;;8.10;5.72;;;;;;;;;;6225089;28;20233;-70
2022/05/18 12:27:46;;;;;;;7.28;6.13;;;;;;;;;;6224712;28;20311;-70
2022/05/18 12:31:07;;;;;;;5.63;5.18;;;;;;;;;;6224569;28;20241;-70
2022/05/18 12:34:39;;;;;;;6.95;6.25;;;;;;;;;;6224455;28;20327;-70
2022/05/18 12:38:04;;;;;;;6.40;5.80;;;;;;;;;;6221906;28;20232;-71
2022/05/18 12:41:26;;;;;;;5.75;5.22;;;;;;;;;;6223889;28;20317;-70
2022/05/18 12:44:51;;;;;;;5.28;4.88;;;;;;;;;;6227879;28;20241;-70
2022/05/18 12:48:16;;;;;;;6.38;5.78;;;;;;;;;;6221467;28;20229;-70
2022/05/18 12:51:44;;;;;;;5.95;5.20;;;;;;;;;;6227671;28;20236;-70
2022/05/18 12:55:18;;;;;;;5.97;5.35;;;;;;;;;;6223966;28;20232;-69
2022/05/18 12:58:43;;;;;;;6.63;5.93;;;;;;;;;;6216078;28;20225;-70
2022/05/18 13:02:06;;;;;;;5.05;4.15;;;;;;;;;;6215246;28;20504;-70
2022/05/18 13:05:34;;;;;;;4.43;4.03;;;;;;;;;;6227237;28;20233;-70
2022/05/18 13:08:58;;;;;;;5.95;5.45;;;;;;;;;;6224239;28;20236;-69
2022/05/18 13:12:30;;;;;;;4.97;4.45;;;;;;;;;;6225827;28;20233;-70
2022/05/18 13:15:55;;;;;;;9.40;4.80;;;;;;;;;;6229326;28;20343;-70
2022/05/18 13:19:19;;;;;;;5.03;4.35;;;;;;;;;;6227385;28;20241;-68
2022/05/18 13:22:47;;;;;;;5.63;5.13;;;;;;;;;;6231680;28;20595;-71
2022/05/18 13:26:12;;;;;;;5.40;4.90;;;;;;;;;;6226189;28;20476;-70
2022/05/18 13:29:35;;;;;;;5.20;4.63;;;;;;;;;;6222195;28;20237;-69
2022/05/18 13:32:58;;;;;;;5.70;5.07;;;;;;;;;;6233281;28;20239;-69
2022/05/18 13:36:31;;;;;;;5.15;4.75;;;;;;;;;;6221728;28;20233;-71
2022/05/18 13:39:52;;;;;;;5.88;5.25;;;;;;;;;;6228214;28;20495;-70
2022/05/18 13:43:16;;;;;;;5.07;4.68;;;;;;;;;;6227364;28;20228;-71
2022/05/18 13:46:37;;;;;;;4.55;3.80;;;;;;;;;;6220207;28;20229;-70
2022/05/18 13:50:01;;;;;;;4.70;4.07;;;;;;;;;;6218574;28;20248;-72
2022/05/18 13:53:23;;;;;;;4.43;4.03;;;;;;;;;;6223656;28;20232;-70
2022/05/18 13:56:45;;;;;;;5.40;4.90;;;;;;;;;;6225673;28;20237;-70
2022/05/18 14:00:12;;;;;;;4.88;4.43;;;;;;;;;;6220772;28;20225;-70
2022/05/18 14:03:36;;;;;;;6.38;4.05;;;;;;;;;;6225543;28;20320;-70
2022/05/18 14:06:56;;;;;;;5.45;4.95;;;;;;;;;;6232621;28;20255;-71
2022/05/18 14:10:18;;;;;;;4.80;4.05;;;;;;;;;;6229700;28;20245;-69
2022/05/18 14:13:39;;;;;;;4.78;4.38;;;;;;;;;;6220289;28;20249;-70
2022/05/18 14:17:03;;;;;;;5.47;3.90;;;;;;;;;;6228460;28;20235;-70
2022/05/18 14:20:25;;;;;;;6.20;4.78;;;;;;;;;;6228388;28;20734;-70
2022/05/18 14:23:50;;;;;;;4.50;4.05;;;;;;;;;;6222576;28;20224;-71
2022/05/18 14:27:13;;;;;;;6.15;4.18;;;;;;;;;;6226482;28;20503;-72
2022/05/18 14:30:35;;;;;;;13.55;3.72;;;;;;;;;;6223428;28;20225;-73
2022/05/18 14:34:00;;;;;;;5.38;4.10;;;;;;;;;;6225764;28;20236;-74
2022/05/18 14:37:26;;;;;;;4.80;3.33;;;;;;;;;;6225113;28;20740;-72
2022/05/18 14:40:47;;;;;;;4.53;3.53;;;;;;;;;;6222024;28;20532;-73
2022/05/18 14:44:07;;;;;;;4.38;3.15;;;;;;;;;;6219706;28;20271;-72
2022/05/18 14:47:30;;;;;;;3.50;3.20;;;;;;;;;;6224909;28;20233;-72
2022/05/18 14:50:52;;;;;;;3.67;3.38;;;;;;;;;;6231536;28;20511;-72
2022/05/18 14:54:16;;;;;;;3.70;3.40;;;;;;;;;;6228713;28;20840;-71
2022/05/18 14:57:38;;;;;;;3.95;3.60;;;;;;;;;;6227268;28;20297;-71
2022/05/18 15:01:00;;;;;;;5.07;3.95;;;;;;;;;;6231474;28;20240;-70
2022/05/18 15:04:24;;;;;;;3.63;3.35;;;;;;;;;;6228444;28;20240;-71
2022/05/18 15:07:49;;;;;;;4.70;3.80;;;;;;;;;;6234282;28;20395;-71
2022/05/18 15:11:13;;;;;;;4.55;3.65;;;;;;;;;;6232465;28;20348;-69
2022/05/18 15:14:39;;;;;;;3.90;3.60;;;;;;;;;;6224442;28;20245;-71
2022/05/18 15:18:01;;;;;;;5.18;3.42;;;;;;;;;;6226669;28;20240;-71
2022/05/18 15:21:26;;;;;;;3.95;3.15;;;;;;;;;;6229543;28;20622;-71
2022/05/18 15:24:48;;;;;;;3.55;2.85;;;;;;;;;;6232552;28;20229;-71
2022/05/18 15:28:10;;;;;;;4.68;2.95;;;;;;;;;;6222600;28;20240;-70
2022/05/18 15:31:34;;;;;;;4.05;3.53;;;;;;;;;;6222802;28;20232;-71
2022/05/18 15:34:59;;;;;;;3.47;3.10;;;;;;;;;;6226358;28;20600;-71
2022/05/18 15:38:21;;;;;;;4.43;2.90;;;;;;;;;;6222709;28;20336;-70
2022/05/18 15:41:44;;;;;;;5.53;5.03;;;;;;;;;;6225945;28;20229;-69
2022/05/18 15:45:04;;;;;;;3.45;3.15;;;;;;;;;;6222344;28;20224;-70
2022/05/18 15:48:26;;;;;;;4.20;2.83;;;;;;;;;;6230413;28;20225;-70
2022/05/18 15:51:48;;;;;;;2.50;2.30;;;;;;;;;;6225008;28;20252;-70
2022/05/18 15:55:11;;;;;;;3.97;2.20;;;;;;;;;;6219011;28;20236;-72
2022/05/18 15:58:33;;;;;;;4.97;3.90;;;;;;;;;;6229544;28;20232;-71
2022/05/18 16:01:53;;;;;;;4.82;3.47;;;;;;;;;;6220875;28;20237;-71
2022/05/18 16:05:14;;;;;;;4.80;3.92;;;;;;;;;;6211965;28;20228;-69
2022/05/18 16:08:35;;;;;;;3.30;3.00;;;;;;;;;;6223504;28;20241;-71
2022/05/18 16:11:56;;;;;;;6.65;3.03;;;;;;;;;;6215817;28;20256;-72
2022/05/18 16:15:19;;;;;;;3.78;3.50;;;;;;;;;;6217224;28;20569;-72
2022/05/18 16:18:40;;;;;;;11.13;10.13;;;;;;;;;;6223126;28;20599;-71
2022/05/18 16:22:01;;;;;;;5.38;4.53;;;;;;;;;;6220315;28;20228;-72
2022/05/18 16:25:24;;;;;;;10.95;9.98;;;;;;;;;;6221233;28;20225;-71
2022/05/18 16:28:45;;;;;;;6.88;6.38;;;;;;;;;;6230129;28;20572;-72
2022/05/18 16:32:08;;;;;;;3.45;2.70;;;;;;;;;;6215341;28;20236;-76
2022/05/18 16:35:30;;;;;;;3.78;3.20;;;;;;;;;;6217857;28;20267;-71
2022/05/18 16:38:52;;;;;;;4.47;4.05;;;;;;;;;;6218266;28;20236;-71
2022/05/18 16:42:15;;;;;;;5.82;4.13;;;;;;;;;;6224080;28;20323;-70
2022/05/18 16:45:35;;;;;;;8.05;4.53;;;;;;;;;;6225372;28;20232;-71
2022/05/18 16:48:58;;;;;;;6.55;3.72;;;;;;;;;;6222336;28;20225;-71
2022/05/18 16:52:19;;;;;;;7.63;5.47;;;;;;;;;;6227426;28;20229;-71
2022/05/18 16:55:40;;;;;;;7.43;6.82;;;;;;;;;;6220045;28;20225;-69
2022/05/18 16:59:01;;;;;;;6.50;4.03;;;;;;;;;;6225871;28;20237;-72
2022/05/18 17:02:22;;;;;;;5.20;4.70;;;;;;;;;;6221477;28;20237;-71
2022/05/18 17:06:00;;;;;;;5.22;4.40;;;;;;;;;;6228089;28;20255;-73
2022/05/18 17:09:21;;;;;;;7.25;4.20;;;;;;;;;;6220002;28;20220;-71
2022/05/18 17:12:43;;;;;;;6.07;5.63;;;;;;;;;;6214109;28;20332;-79
2022/05/18 17:16:04;;;;;;;11.85;10.52;;;;;;;;;;6224889;28;20236;-75
2022/05/18 17:19:25;;;;;;;6.90;6.22;;;;;;;;;;6217292;28;20236;-70
2022/05/18 17:22:48;;;;;;;9.60;7.72;;;;;;;;;;6225901;28;20236;-71
2022/05/18 17:26:11;;;;;;;9.88;8.98;;;;;;;;;;6222516;28;20608;-69
2022/05/18 17:29:32;;;;;;;6.60;5.97;;;;;;;;;;6222468;28;20782;-71
2022/05/18 17:32:54;;;;;;;5.53;5.07;;;;;;;;;;6220274;28;22824;-69
2022/05/18 17:36:15;;;;;;;5.90;5.30;;;;;;;;;;6218049;28;20610;-76
2022/05/18 17:39:37;;;;;;;6.45;5.80;;;;;;;;;;6213474;28;20657;-75
2022/05/18 17:42:58;;;;;;;9.10;7.82;;;;;;;;;;6480378;22;20727;-68
2022/05/18 17:46:20;;;;;;;8.73;7.30;;;;;;;;;;6205054;28;20230;-66
2022/05/18 17:49:40;;;;;;;6.80;6.30;;;;;;;;;;6199973;28;20682;-66
2022/05/18 17:53:00;;;;;;;8.55;7.68;;;;;;;;;;6196892;28;20527;-65
2022/05/18 17:56:22;;;;;;;7.68;5.82;;;;;;;;;;6200868;28;20236;-66
2022/05/18 17:59:43;;;;;;;6.65;5.93;;;;;;;;;;6212122;28;20237;-66
2022/05/18 18:03:05;;;;;;;6.07;5.40;;;;;;;;;;6202001;28;20221;-64
2022/05/18 18:06:25;;;;;;;5.80;5.32;;;;;;;;;;6204108;28;20252;-66
2022/05/18 18:09:46;;;;;;;5.68;4.82;;;;;;;;;;6211341;28;20613;-66
2022/05/18 18:13:08;;;;;;;5.50;5.10;;;;;;;;;;6206448;28;20228;-67
2022/05/18 18:16:29;;;;;;;7.82;7.22;;;;;;;;;;6208151;28;20224;-67
2022/05/18 18:19:51;;;;;;;6.97;6.25;;;;;;;;;;6209914;28;20558;-66
2022/05/18 18:23:14;;;;;;;9.38;5.82;;;;;;;;;;6198955;28;20312;-68
2022/05/18 18:26:38;;;;;;;12.20;11.10;;;;;;;;;;6208722;28;20228;-67
2022/05/18 18:30:00;;;;;;;7.32;6.63;;;;;;;;;;6205049;28;20225;-68
2022/05/18 18:33:22;;;;;;;6.70;6.18;;;;;;;;;;6212657;28;20716;-66
2022/05/18 18:36:43;;;;;;;7.93;6.60;;;;;;;;;;6206893;28;20225;-69
2022/05/18 18:40:05;;;;;;;6.35;5.35;;;;;;;;;;6214355;28;20233;-69
2022/05/18 18:43:28;;;;;;;7.15;6.60;;;;;;;;;;6206255;28;20238;-68
2022/05/18 18:46:50;;;;;;;6.70;6.05;;;;;;;;;;6208542;28;20233;-68
2022/05/18 18:50:11;;;;;;;6.50;5.97;;;;;;;;;;6202988;28;20335;-68
2022/05/18 18:57:11;;;;;;;6.72;5.97;;;;;;;;;;6208731;28;20315;-68
2022/05/18 19:00:33;;;;;;;6.10;4.75;;;;;;;;;;6201971;28;20237;-68
2022/05/18 19:03:56;;;;;;;6.22;5.60;;;;;;;;;;6206190;28;20245;-70
2022/05/18 19:07:17;;;;;;;6.30;5.80;;;;;;;;;;6205504;28;20233;-67
2022/05/18 19:10:40;;;;;;;5.68;5.18;;;;;;;;;;6205604;28;20233;-66
2022/05/18 19:14:01;;;;;;;6.63;6.05;;;;;;;;;;6203578;28;20245;-69
2022/05/18 19:17:21;;;;;;;7.07;5.78;;;;;;;;;;6204403;28;20233;-68
2022/05/18 19:20:46;;;;;;;8.68;6.28;;;;;;;;;;6201587;28;20567;-69
2022/05/18 19:24:08;;;;;;;6.57;5.95;;;;;;;;;;6199850;28;20241;-68
2022/05/18 19:27:28;;;;;;;7.32;6.68;;;;;;;;;;6204705;28;20229;-69
2022/05/18 19:30:49;;;;;;;6.03;5.47;;;;;;;;;;6206878;28;20264;-70
2022/05/18 19:34:10;;;;;;;5.80;5.28;;;;;;;;;;6204092;28;20237;-70
2022/05/18 19:37:31;;;;;;;7.90;7.20;;;;;;;;;;6210245;28;20244;-69
2022/05/18 19:40:52;;;;;;;7.43;6.75;;;;;;;;;;6205753;28;20226;-68
2022/05/18 19:44:13;;;;;;;6.18;5.68;;;;;;;;;;6196201;28;20228;-68
2022/05/18 19:47:34;;;;;;;6.18;5.78;;;;;;;;;;6202215;28;20229;-69
2022/05/18 19:50:54;;;;;;;8.10;7.30;;;;;;;;;;6200103;28;20320;-69
2022/05/18 19:54:16;;;;;;;8.32;7.63;;;;;;;;;;6193026;28;20237;-70
2022/05/18 19:57:37;;;;;;;8.30;6.43;;;;;;;;;;6195346;28;20233;-70
2022/05/18 20:00:58;;;;;;;7.88;7.05;;;;;;;;;;6192246;28;20903;-71
2022/05/18 20:04:18;;;;;;;8.45;7.65;;;;;;;;;;6198450;28;20256;-71
2022/05/18 20:07:39;;;;;;;6.63;6.13;;;;;;;;;;6206782;28;20225;-70
2022/05/18 20:11:02;;;;;;;6.50;5.97;;;;;;;;;;6204989;28;20248;-71
2022/05/18 20:14:23;;;;;;;7.05;6.35;;;;;;;;;;6208432;28;20520;-69
2022/05/18 20:17:44;;;;;;;10.93;7.35;;;;;;;;;;6207221;28;20222;-70
2022/05/18 20:21:05;;;;;;;7.07;6.03;;;;;;;;;;6207676;28;20598;-70
2022/05/18 20:24:26;;;;;;;8.20;7.38;;;;;;;;;;6207628;28;20308;-69
2022/05/18 20:27:50;;;;;;;6.80;6.03;;;;;;;;;;6206915;28;20331;-70
2022/05/18 20:31:11;;;;;;;7.85;5.70;;;;;;;;;;6207795;28;20633;-68
2022/05/18 20:34:31;;;;;;;5.82;5.43;;;;;;;;;;6200735;28;20229;-69
2022/05/18 20:37:52;;;;;;;6.53;5.60;;;;;;;;;;6196235;28;20221;-68
2022/05/18 20:41:13;;;;;;;5.70;5.18;;;;;;;;;;6203223;28;20598;-70